Terminal Aerodrome Forecast
Issued by NWS

Home | Current Version | Previous Version | Text Only | Print | Product List | Glossary On
Versions: 1 2 3 4 5 6 7 8 9 10 11 12 13 14 15 16
000
FTAK31 PAJN 291100
TAFAPG
TAF
PAPG 291120Z 2912/3012 VRB03KT 6SM -RA BR SCT005 BKN015 OVC025
      TEMPO 2912/2916 2SM -RA BR BKN003 BKN010 OVC020
     FM291600 05004KT 4SM -RA BR BKN010 OVC025
     FM292100 06005KT P6SM -RA SCT025 OVC050
     FM300300 VRB03KT P6SM -SHRA BKN050
      AMD LTD TO CLD VIS AND WIND 2912/2915=

USA.gov is the U.S. government's official web portal to all federal, state and local government web resources and services.